createdAt,value
2019-03-03T00:01:08.298Z,15.97
2019-03-03T00:03:43.354Z,16.30
2019-03-03T00:06:18.785Z,17.57
2019-03-03T00:08:53.839Z,16.33
2019-03-03T00:11:28.853Z,15.80
2019-03-03T00:14:04.195Z,15.40
2019-03-03T00:16:39.237Z,16.40
2019-03-03T00:19:14.320Z,14.63
2019-03-03T00:21:51.042Z,18.83
2019-03-03T00:24:28.962Z,14.23
2019-03-03T00:27:04.125Z,17.27
2019-03-03T00:29:39.482Z,15.90
2019-03-03T00:32:14.519Z,13.80
2019-03-03T00:34:49.616Z,13.17
2019-03-03T00:37:26.367Z,16.07
2019-03-03T00:40:03.058Z,16.20
2019-03-03T00:42:40.126Z,18.20
2019-03-03T00:45:19.922Z,16.57
2019-03-03T00:48:00.753Z,16.90
2019-03-03T00:50:40.538Z,16.80
2019-03-03T00:53:17.303Z,15.87
2019-03-03T00:56:00.580Z,17.63
2019-03-03T00:58:43.731Z,15.37
2019-03-03T01:01:23.939Z,16.83
2019-03-03T01:04:13.299Z,15.57
2019-03-03T01:06:49.975Z,17.60
2019-03-03T01:09:30.001Z,18.27
2019-03-03T01:12:23.329Z,15.77
2019-03-03T01:15:09.428Z,16.27
2019-03-03T01:17:49.399Z,16.67
2019-03-03T01:20:39.881Z,16.43
2019-03-03T01:23:36.325Z,16.57
2019-03-03T01:26:12.131Z,17.33
2019-03-03T01:28:47.151Z,17.80
2019-03-03T01:31:22.213Z,16.50
2019-03-03T01:33:58.881Z,17.17
2019-03-03T01:36:34.279Z,15.93
2019-03-03T01:39:09.668Z,17.43
2019-03-03T01:41:45.054Z,18.57
2019-03-03T01:44:20.608Z,18.03
2019-03-03T01:46:55.942Z,18.10
2019-03-03T01:49:31.237Z,18.33
2019-03-03T01:52:06.336Z,17.43
2019-03-03T01:54:42.316Z,18.93
2019-03-03T01:57:17.841Z,17.17
2019-03-03T01:59:52.862Z,19.87
2019-03-03T02:02:28.211Z,19.03
2019-03-03T02:05:03.299Z,18.47
2019-03-03T02:07:38.529Z,18.40
2019-03-03T02:10:15.498Z,19.53
2019-03-03T02:12:50.588Z,19.53
2019-03-03T02:15:25.678Z,18.23
2019-03-03T02:18:00.814Z,20.00
2019-03-03T02:20:35.935Z,19.73
2019-03-03T02:23:10.990Z,21.63
2019-03-03T02:25:46.095Z,20.13
2019-03-03T02:28:21.534Z,22.90
2019-03-03T02:30:56.611Z,19.73
2019-03-03T02:33:31.705Z,21.13
2019-03-03T02:36:06.778Z,19.27
2019-03-03T02:38:42.392Z,19.43
2019-03-03T02:41:18.242Z,17.87
2019-03-03T02:43:53.290Z,18.37
2019-03-03T02:46:28.317Z,19.37
2019-03-03T02:49:03.435Z,26.43
2019-03-03T02:51:38.788Z,18.53
2019-03-03T02:54:14.019Z,20.43
2019-03-03T02:56:50.024Z,19.53
2019-03-03T02:59:25.336Z,20.83
2019-03-03T03:02:01.197Z,19.60
2019-03-03T03:04:36.671Z,18.67
2019-03-03T03:07:13.445Z,21.40
2019-03-03T03:09:56.190Z,22.63
2019-03-03T03:12:50.422Z,21.37
2019-03-03T03:15:27.096Z,22.73
2019-03-03T03:18:04.671Z,20.10
2019-03-03T03:20:45.144Z,20.47
2019-03-03T03:23:21.829Z,20.83
2019-03-03T03:25:58.491Z,21.50
2019-03-03T03:28:48.404Z,22.53
2019-03-03T03:31:25.328Z,19.90
2019-03-03T03:34:17.852Z,23.23
2019-03-03T03:37:01.129Z,20.43
2019-03-03T03:39:56.282Z,20.63
2019-03-03T03:42:39.519Z,21.50
2019-03-03T03:45:16.202Z,22.70
2019-03-03T03:47:58.798Z,20.90
2019-03-03T03:50:53.338Z,19.57
2019-03-03T03:53:47.666Z,20.23
2019-03-03T03:56:33.509Z,20.20
2019-03-03T03:59:13.732Z,20.40
2019-03-03T04:01:50.854Z,18.60
2019-03-03T04:04:30.525Z,21.60
2019-03-03T04:07:07.212Z,19.40
2019-03-03T04:09:44.365Z,19.83
2019-03-03T04:12:21.146Z,21.10
2019-03-03T04:14:58.171Z,20.60
2019-03-03T04:17:54.285Z,19.87
2019-03-03T04:21:17.921Z,22.10
2019-03-03T04:24:01.606Z,21.73
2019-03-03T04:26:47.806Z,19.20
2019-03-03T04:29:24.500Z,19.57
2019-03-03T04:32:07.637Z,20.00
2019-03-03T04:34:44.649Z,20.60
2019-03-03T04:37:34.376Z,18.90
2019-03-03T04:40:18.003Z,17.67
2019-03-03T04:43:12.566Z,18.63
2019-03-03T04:45:49.248Z,18.77
2019-03-03T04:48:29.053Z,18.57
2019-03-03T04:54:44.157Z,18.23
2019-03-03T04:57:24.325Z,17.20
2019-03-03T05:00:07.357Z,18.20
2019-03-03T05:03:01.571Z,18.23
2019-03-03T05:05:44.962Z,17.57
2019-03-03T05:08:24.473Z,16.23
2019-03-03T05:11:18.713Z,15.57
2019-03-03T05:13:55.477Z,15.77
2019-03-03T05:16:35.324Z,16.73
2019-03-03T05:19:10.647Z,16.57
2019-03-03T05:21:45.703Z,15.30
2019-03-03T05:24:21.132Z,15.13
2019-03-03T05:26:56.274Z,14.83
2019-03-03T05:29:31.373Z,16.73
2019-03-03T05:32:06.752Z,15.17
2019-03-03T05:34:42.089Z,14.23
2019-03-03T05:37:17.428Z,15.50
2019-03-03T05:39:52.773Z,13.70
2019-03-03T05:42:28.152Z,12.33
2019-03-03T05:45:04.829Z,13.40
2019-03-03T05:47:40.130Z,13.57
2019-03-03T05:50:15.181Z,12.13
2019-03-03T05:52:50.218Z,13.47
2019-03-03T05:55:25.262Z,13.20
2019-03-03T05:58:00.701Z,13.23
2019-03-03T06:00:35.794Z,13.87
2019-03-03T06:03:10.909Z,13.70
2019-03-03T06:05:47.456Z,14.90
2019-03-03T06:08:22.739Z,12.93
2019-03-03T06:10:57.847Z,11.83
2019-03-03T06:13:33.246Z,11.53
2019-03-03T06:16:08.267Z,11.67
2019-03-03T06:18:43.329Z,11.30
2019-03-03T06:21:19.450Z,11.93
2019-03-03T06:23:54.965Z,9.80
2019-03-03T06:26:29.987Z,11.53
2019-03-03T06:29:05.154Z,10.37
2019-03-03T06:31:40.566Z,9.47
2019-03-03T06:34:15.578Z,8.57
2019-03-03T06:36:51.023Z,8.33
2019-03-03T06:39:29.046Z,8.87
2019-03-03T06:42:04.378Z,7.60
2019-03-03T06:44:39.534Z,6.97
2019-03-03T06:47:14.960Z,7.77
2019-03-03T06:49:50.310Z,7.80
2019-03-03T06:52:25.848Z,7.37
2019-03-03T06:55:03.104Z,8.17
2019-03-03T06:57:38.245Z,7.67
2019-03-03T07:00:16.343Z,7.27
2019-03-03T07:02:51.420Z,8.33
2019-03-03T07:05:26.597Z,6.30
2019-03-03T07:08:01.730Z,6.73
2019-03-03T07:10:36.782Z,6.97
2019-03-03T07:13:12.169Z,7.07
2019-03-03T07:15:48.462Z,7.33
2019-03-03T07:18:23.509Z,8.83
2019-03-03T07:20:58.988Z,5.97
2019-03-03T07:23:34.030Z,6.07
2019-03-03T07:26:09.859Z,5.93
2019-03-03T07:28:44.922Z,5.87
2019-03-03T07:31:20.874Z,6.67
2019-03-03T07:33:56.826Z,6.40
2019-03-03T07:36:31.890Z,5.90
2019-03-03T07:39:16.041Z,6.70
2019-03-03T07:41:51.094Z,7.17
2019-03-03T07:44:26.441Z,6.00
2019-03-03T07:47:01.575Z,6.30
2019-03-03T07:49:36.904Z,7.07
2019-03-03T07:52:11.979Z,8.40
2019-03-03T07:54:47.010Z,5.13
2019-03-03T07:57:22.635Z,5.27
2019-03-03T07:59:57.684Z,4.23
2019-03-03T08:02:32.798Z,5.70
2019-03-03T08:05:09.393Z,5.57
2019-03-03T08:07:44.510Z,5.00
2019-03-03T08:10:20.629Z,4.53
2019-03-03T08:12:55.664Z,4.17
2019-03-03T08:15:31.044Z,5.23
2019-03-03T08:18:06.670Z,4.70
2019-03-03T08:20:43.673Z,4.97
2019-03-03T08:23:19.626Z,5.20
2019-03-03T08:25:54.970Z,4.73
2019-03-03T08:28:30.018Z,5.47
2019-03-03T08:31:05.154Z,4.50
2019-03-03T08:33:40.283Z,4.90
2019-03-03T08:36:15.318Z,4.23
2019-03-03T08:38:59.286Z,5.13
2019-03-03T08:41:56.025Z,5.87
2019-03-03T08:44:39.179Z,7.07
2019-03-03T08:47:35.986Z,5.10
2019-03-03T08:50:15.243Z,4.77
2019-03-03T08:53:09.514Z,6.67
2019-03-03T08:56:03.855Z,5.03
2019-03-03T08:58:41.200Z,6.10
2019-03-03T09:01:18.780Z,7.03
2019-03-03T09:03:58.723Z,4.80
2019-03-03T09:06:38.542Z,5.00
2019-03-03T09:09:32.429Z,4.43
2019-03-03T09:12:30.223Z,5.07
2019-03-03T09:15:27.786Z,7.23
2019-03-03T09:18:08.790Z,6.63
2019-03-03T09:20:45.890Z,6.07
2019-03-03T09:23:26.030Z,6.20
2019-03-03T09:26:16.096Z,5.47
2019-03-03T09:28:53.083Z,5.83
2019-03-03T09:31:36.493Z,5.87
2019-03-03T09:34:19.341Z,5.87
2019-03-03T09:36:56.039Z,5.37
2019-03-03T09:39:32.706Z,6.50
2019-03-03T09:42:19.682Z,6.43
2019-03-03T09:44:56.679Z,5.93
2019-03-03T09:47:33.376Z,6.67
2019-03-03T09:50:19.127Z,5.10
2019-03-03T09:53:15.510Z,4.90
2019-03-03T09:55:55.029Z,6.00
2019-03-03T09:58:50.435Z,4.57
2019-03-03T10:01:45.128Z,5.40
2019-03-03T10:04:40.373Z,5.63
2019-03-03T10:07:17.179Z,5.23
2019-03-03T10:09:59.879Z,5.90
2019-03-03T10:12:54.508Z,6.47
2019-03-03T10:15:34.863Z,6.97
2019-03-03T10:18:14.518Z,4.97
2019-03-03T10:21:03.106Z,5.60
2019-03-03T10:23:45.688Z,6.60
2019-03-03T10:26:29.432Z,5.13
2019-03-03T10:29:24.019Z,5.10
2019-03-03T10:32:15.107Z,5.33
2019-03-03T10:34:54.950Z,6.27
2019-03-03T10:37:42.361Z,5.20
2019-03-03T10:40:19.898Z,5.40
2019-03-03T10:42:56.834Z,5.60
2019-03-03T10:45:36.366Z,5.90
2019-03-03T10:48:29.599Z,5.03
2019-03-03T10:51:09.007Z,5.40
2019-03-03T10:53:46.026Z,5.53
2019-03-03T10:56:29.930Z,5.23
2019-03-03T10:59:09.479Z,6.30
2019-03-03T11:01:46.420Z,4.27
2019-03-03T11:04:25.873Z,4.33
2019-03-03T11:07:04.160Z,4.87
2019-03-03T11:10:00.693Z,4.33
2019-03-03T11:12:43.785Z,5.33
2019-03-03T11:15:38.357Z,4.87
2019-03-03T11:18:33.005Z,4.33
2019-03-03T11:21:27.908Z,4.97
2019-03-03T11:24:10.787Z,5.97
2019-03-03T11:27:00.097Z,4.23
2019-03-03T11:29:50.147Z,4.23
2019-03-03T11:32:26.889Z,4.87
2019-03-03T11:35:21.502Z,5.00
2019-03-03T11:37:58.311Z,4.23
2019-03-03T11:40:35.309Z,5.70
2019-03-03T11:43:25.158Z,5.27
2019-03-03T11:46:19.479Z,5.07
2019-03-03T11:48:56.970Z,4.77
2019-03-03T11:51:51.207Z,3.97
2019-03-03T11:54:31.990Z,6.47
2019-03-03T11:57:18.287Z,4.80
2019-03-03T11:59:55.065Z,4.87
2019-03-03T12:02:38.724Z,4.77
2019-03-03T12:05:31.781Z,4.70
2019-03-03T12:08:11.307Z,5.53
2019-03-03T12:10:48.014Z,4.10
2019-03-03T12:13:25.159Z,4.67
2019-03-03T12:16:12.081Z,4.73
2019-03-03T12:19:03.601Z,6.03
2019-03-03T12:21:43.429Z,5.57
2019-03-03T12:24:35.094Z,5.70
2019-03-03T12:27:28.110Z,5.70
2019-03-03T12:30:04.803Z,6.27
2019-03-03T12:32:41.702Z,4.57
2019-03-03T12:35:18.495Z,6.47
2019-03-03T12:37:58.288Z,5.37
2019-03-03T12:40:35.283Z,7.37
2019-03-03T12:43:22.490Z,5.77
2019-03-03T12:46:10.010Z,5.70
2019-03-03T12:48:47.647Z,5.53
2019-03-03T12:51:30.818Z,7.30
2019-03-03T12:54:14.867Z,7.97
2019-03-03T12:56:51.887Z,5.97
2019-03-03T12:59:31.396Z,5.47
2019-03-03T13:02:24.577Z,5.13
2019-03-03T13:05:06.354Z,7.70
2019-03-03T13:08:00.413Z,5.83
2019-03-03T13:10:40.545Z,6.10
2019-03-03T13:13:17.587Z,6.80
2019-03-03T13:16:07.719Z,5.67
2019-03-03T13:18:50.526Z,6.30
2019-03-03T13:21:40.122Z,5.33
2019-03-03T13:24:17.884Z,5.83
2019-03-03T13:26:54.678Z,5.80
2019-03-03T13:29:48.920Z,5.47
2019-03-03T13:32:29.307Z,6.00
2019-03-03T13:35:18.142Z,6.43
2019-03-03T13:38:01.116Z,6.63
2019-03-03T13:40:37.819Z,6.93
2019-03-03T13:43:13.886Z,7.03
2019-03-03T13:45:48.999Z,7.23
2019-03-03T13:48:24.050Z,6.17
2019-03-03T13:50:59.155Z,8.00
2019-03-03T13:53:34.518Z,6.33
2019-03-03T13:56:10.107Z,6.10
2019-03-03T13:58:45.223Z,7.93
2019-03-03T14:01:20.428Z,7.20
2019-03-03T14:03:56.167Z,6.37
2019-03-03T14:06:31.189Z,4.97
2019-03-03T14:09:07.882Z,5.50
2019-03-03T14:11:44.077Z,5.30
2019-03-03T14:14:19.699Z,5.17
2019-03-03T14:16:54.730Z,4.90
2019-03-03T14:19:30.245Z,5.03
2019-03-03T14:22:05.415Z,4.57
2019-03-03T14:24:40.451Z,4.47
2019-03-03T14:27:16.165Z,4.93
2019-03-03T14:29:51.414Z,5.40
2019-03-03T14:32:26.539Z,5.23
2019-03-03T14:35:01.875Z,5.33
2019-03-03T14:37:38.131Z,4.47
2019-03-03T14:40:18.292Z,5.70
2019-03-03T14:42:53.312Z,4.97
2019-03-03T14:45:28.704Z,4.70
2019-03-03T14:48:03.720Z,4.87
2019-03-03T14:50:39.998Z,5.10
2019-03-03T14:53:15.386Z,6.13
2019-03-03T14:55:50.444Z,5.53
2019-03-03T14:58:25.754Z,5.63
2019-03-03T15:01:00.808Z,5.50
2019-03-03T15:03:35.962Z,4.50
2019-03-03T15:06:12.977Z,6.30
2019-03-03T15:08:48.316Z,5.00
2019-03-03T15:11:23.377Z,6.57
2019-03-03T15:13:58.423Z,5.70
2019-03-03T15:16:33.471Z,5.80
2019-03-03T15:19:08.628Z,8.60
2019-03-03T15:21:46.238Z,7.33
2019-03-03T15:24:21.412Z,8.03
2019-03-03T15:26:57.842Z,9.53
2019-03-03T15:29:33.218Z,7.10
2019-03-03T15:32:08.267Z,6.77
2019-03-03T15:34:43.313Z,6.73
2019-03-03T15:37:18.905Z,7.87
2019-03-03T15:39:54.073Z,7.23
2019-03-03T15:42:29.129Z,7.47
2019-03-03T15:45:07.393Z,6.73
2019-03-03T15:47:42.452Z,6.47
2019-03-03T15:50:19.049Z,6.77
2019-03-03T15:52:54.754Z,6.37
2019-03-03T15:55:31.947Z,6.10
2019-03-03T15:58:08.102Z,6.00
2019-03-03T16:00:43.307Z,6.43
2019-03-03T16:03:18.403Z,7.10
2019-03-03T16:05:54.253Z,7.43
2019-03-03T16:08:29.673Z,6.53
2019-03-03T16:11:04.722Z,8.17
2019-03-03T16:13:41.084Z,10.63
2019-03-03T16:16:16.520Z,7.60
2019-03-03T16:18:52.202Z,7.37
2019-03-03T16:21:27.460Z,7.53
2019-03-03T16:24:02.500Z,7.10
2019-03-03T16:26:37.549Z,7.67
2019-03-03T16:29:12.647Z,7.10
2019-03-03T16:31:47.763Z,7.70
2019-03-03T16:34:22.790Z,8.47
2019-03-03T16:36:58.238Z,7.90
2019-03-03T16:39:33.263Z,7.03
2019-03-03T16:42:08.631Z,7.47
2019-03-03T16:44:43.658Z,8.13
2019-03-03T16:47:19.683Z,9.40
2019-03-03T16:49:54.996Z,7.47
2019-03-03T16:52:30.071Z,8.60
2019-03-03T16:55:08.242Z,8.03
2019-03-03T16:57:44.684Z,7.17
2019-03-03T17:00:25.008Z,7.70
2019-03-03T17:03:00.109Z,9.73
2019-03-03T17:05:35.226Z,8.77
2019-03-03T17:08:10.645Z,8.50
2019-03-03T17:10:45.675Z,7.73
2019-03-03T17:13:21.767Z,8.73
2019-03-03T17:15:58.781Z,7.13
2019-03-03T17:18:34.036Z,7.67
2019-03-03T17:21:10.388Z,6.70
2019-03-03T17:23:45.786Z,6.67
2019-03-03T17:26:21.251Z,8.77
2019-03-03T17:28:56.356Z,7.43
2019-03-03T17:31:31.468Z,7.23
2019-03-03T17:34:13.124Z,7.70
2019-03-03T17:36:43.702Z,7.77
2019-03-03T17:39:19.260Z,8.20
2019-03-03T17:41:54.342Z,6.97
2019-03-03T17:44:29.368Z,6.50
2019-03-03T17:47:04.391Z,8.93
2019-03-03T17:49:39.435Z,6.97
2019-03-03T17:52:14.759Z,6.70
2019-03-03T17:54:50.180Z,7.17
2019-03-03T17:57:25.274Z,7.67
2019-03-03T18:00:01.003Z,7.07
2019-03-03T18:02:37.753Z,7.40
2019-03-03T18:05:12.865Z,7.10
2019-03-03T18:07:48.633Z,7.73
2019-03-03T18:10:23.774Z,8.07
2019-03-03T18:12:59.257Z,6.57
2019-03-03T18:15:34.389Z,8.37
2019-03-03T18:18:09.820Z,7.60
2019-03-03T18:20:45.173Z,6.77
2019-03-03T18:23:21.739Z,7.07
2019-03-03T18:25:56.820Z,5.80
2019-03-03T18:28:32.198Z,6.13
2019-03-03T18:31:07.638Z,6.93
2019-03-03T18:33:43.291Z,7.43
2019-03-03T18:36:19.570Z,6.77
2019-03-03T18:38:54.942Z,7.03
2019-03-03T18:41:30.473Z,6.87
2019-03-03T18:44:05.814Z,8.90
2019-03-03T18:46:41.738Z,7.77
2019-03-03T18:49:17.034Z,7.93
2019-03-03T18:51:52.149Z,6.63
2019-03-03T18:54:29.343Z,6.27
2019-03-03T18:57:04.873Z,6.57
2019-03-03T18:59:40.350Z,6.30
2019-03-03T19:02:17.103Z,6.87
2019-03-03T19:04:52.237Z,6.67
2019-03-03T19:07:27.363Z,6.70
2019-03-03T19:10:02.468Z,6.23
2019-03-03T19:12:39.485Z,6.10
2019-03-03T19:15:20.678Z,6.37
2019-03-03T19:17:55.727Z,8.27
2019-03-03T19:20:31.171Z,7.33
2019-03-03T19:23:06.269Z,5.90
2019-03-03T19:25:41.694Z,6.10
2019-03-03T19:28:16.741Z,6.10
2019-03-03T19:30:52.814Z,5.63
2019-03-03T19:33:40.534Z,6.10
2019-03-03T19:36:16.011Z,6.20
2019-03-03T19:38:51.303Z,6.13
2019-03-03T19:41:26.733Z,5.83
2019-03-03T19:44:01.934Z,5.57
2019-03-03T19:46:37.535Z,5.87
2019-03-03T19:49:12.715Z,5.60
2019-03-03T19:51:48.228Z,5.33
2019-03-03T19:54:23.870Z,5.93
2019-03-03T19:56:59.897Z,5.50
2019-03-03T19:59:35.511Z,6.43
2019-03-03T20:02:11.254Z,6.03
2019-03-03T20:04:46.480Z,5.77
2019-03-03T20:07:21.752Z,6.30
2019-03-03T20:09:57.976Z,6.40
2019-03-03T20:12:33.494Z,5.23
2019-03-03T20:15:11.067Z,4.83
2019-03-03T20:17:47.400Z,4.77
2019-03-03T20:20:23.046Z,7.53
2019-03-03T20:22:59.544Z,5.33
2019-03-03T20:25:34.662Z,5.80
2019-03-03T20:28:10.213Z,5.37
2019-03-03T20:30:46.410Z,5.37
2019-03-03T20:33:22.755Z,5.53
2019-03-03T20:35:58.330Z,5.63
2019-03-03T20:38:33.461Z,5.87
2019-03-03T20:41:08.607Z,5.57
2019-03-03T20:43:43.785Z,5.37
2019-03-03T20:46:20.148Z,6.70
2019-03-03T20:48:55.657Z,7.10
2019-03-03T20:51:33.145Z,5.33
2019-03-03T20:54:09.694Z,4.73
2019-03-03T20:56:44.743Z,5.60
2019-03-03T20:59:19.892Z,5.87
2019-03-03T21:01:55.017Z,5.40
2019-03-03T21:04:30.130Z,4.43
2019-03-03T21:07:05.600Z,6.07
2019-03-03T21:09:42.160Z,5.67
2019-03-03T21:12:18.511Z,5.60
2019-03-03T21:14:54.403Z,6.03
2019-03-03T21:17:29.731Z,5.07
2019-03-03T21:20:08.246Z,6.73
2019-03-03T21:22:43.374Z,4.50
2019-03-03T21:25:19.624Z,5.17
2019-03-03T21:27:55.568Z,5.20
2019-03-03T21:30:31.848Z,6.07
2019-03-03T21:33:07.134Z,4.77
2019-03-03T21:35:42.536Z,5.20
2019-03-03T21:38:17.576Z,4.90
2019-03-03T21:40:57.112Z,6.17
2019-03-03T21:43:32.165Z,7.30
2019-03-03T21:46:07.763Z,6.07
2019-03-03T21:48:42.800Z,5.63
2019-03-03T21:51:18.111Z,8.53
2019-03-03T21:53:53.177Z,5.00
2019-03-03T21:56:28.287Z,5.73
2019-03-03T21:59:03.458Z,4.83
2019-03-03T22:01:38.770Z,5.27
2019-03-03T22:04:13.919Z,4.93
2019-03-03T22:06:49.089Z,4.73
2019-03-03T22:09:31.913Z,4.60
2019-03-03T22:12:10.240Z,6.73
2019-03-03T22:14:45.372Z,5.87
2019-03-03T22:17:20.488Z,5.10
2019-03-03T22:19:55.913Z,5.87
2019-03-03T22:22:31.239Z,5.80
2019-03-03T22:25:09.369Z,4.80
2019-03-03T22:27:45.278Z,5.30
2019-03-03T22:30:20.738Z,5.50
2019-03-03T22:32:56.044Z,5.93
2019-03-03T22:35:31.141Z,4.80
2019-03-03T22:38:06.250Z,5.07
2019-03-03T22:40:42.076Z,4.93
2019-03-03T22:43:17.521Z,5.37
2019-03-03T22:45:52.862Z,5.10
2019-03-03T22:48:28.542Z,5.10
2019-03-03T22:51:03.865Z,4.93
2019-03-03T22:53:39.028Z,5.40
2019-03-03T22:56:14.442Z,5.57
2019-03-03T22:58:49.985Z,5.97
2019-03-03T23:01:25.866Z,5.37
2019-03-03T23:04:36.306Z,5.17
2019-03-03T23:07:14.782Z,6.57
2019-03-03T23:09:56.606Z,9.87
2019-03-03T23:13:01.343Z,9.93
2019-03-03T23:15:58.083Z,5.20
2019-03-03T23:18:48.637Z,4.63
2019-03-03T23:21:36.799Z,6.40
2019-03-03T23:24:48.832Z,4.23
2019-03-03T23:27:25.126Z,5.37
2019-03-03T23:30:01.464Z,5.27
2019-03-03T23:32:36.643Z,4.93
2019-03-03T23:35:12.163Z,5.37
2019-03-03T23:37:47.517Z,4.70
2019-03-03T23:40:22.945Z,5.80
2019-03-03T23:42:58.489Z,3.83
2019-03-03T23:45:33.590Z,4.83
2019-03-03T23:48:08.724Z,4.70
2019-03-03T23:50:44.092Z,3.93
2019-03-03T23:53:19.766Z,4.23
2019-03-03T23:55:54.789Z,4.20
2019-03-03T23:58:29.833Z,4.77
